Time;durP1;ratioP1;P1;durP2;ratioP2;P2;SDS_P1;SDS_P2;PMS_P1;PMS_P2;Temp;Humidity;BMP_temperature;BMP_pressure;BME280_temperature;BME280_humidity;BME280_pressure;Samples;Min_cycle;Max_cycle;Signal;HPM_P1;HPM_P2
2023/03/03 00:01:53;;;;;;;5.6;2.7;;;;;;;;;;;;;-72
2023/03/03 00:02:13;;;;;;;;;;;;;;;0.87;89.69238;102731.4;;;;-72
2023/03/03 00:07:20;;;;;;;;;;;;;;;0.86;89.76563;102735.6;;;;-71
2023/03/03 00:12:22;;;;;;;;;;;;;;;0.85;89.58008;102726.7;;;;-71
2023/03/03 00:17:18;;;;;;;;;;;;;;;0.83;89.54199;102731.3;;;;-71
2023/03/03 00:22:17;;;;;;;;;;;;;;;0.8;89.62305;102736;;;;-71
2023/03/03 00:27:20;;;;;;;;;;;;;;;0.76;89.63477;102741.6;;;;-70
2023/03/03 00:31:53;;;;;;;6.9;2.4;;;;;;;;;;;;;-71
2023/03/03 00:32:24;;;;;;;;;;;;;;;0.73;89.53223;102742;;;;-71
2023/03/03 00:37:23;;;;;;;;;;;;;;;0.68;89.48828;102744.6;;;;-71
2023/03/03 00:42:17;;;;;;;;;;;;;;;0.67;89.62695;102740.9;;;;-71
2023/03/03 00:47:24;;;;;;;;;;;;;;;0.62;89.60449;102741.7;;;;-70
2023/03/03 00:52:28;;;;;;;;;;;;;;;0.58;89.55371;102740;;;;-71
2023/03/03 00:57:15;;;;;;;;;;;;;;;0.57;89.50879;102742.6;;;;-70
2023/03/03 01:01:53;;;;;;;4.3;1.9;;;;;;;;;;;;;-72
2023/03/03 01:02:13;;;;;;;;;;;;;;;0.53;89.44727;102741.4;;;;-70
2023/03/03 01:07:16;;;;;;;;;;;;;;;0.5;89.60156;102744.4;;;;-71
2023/03/03 01:12:14;;;;;;;;;;;;;;;0.45;89.48438;102744.6;;;;-71
2023/03/03 01:17:16;;;;;;;;;;;;;;;0.4;89.15137;102747.7;;;;-71
2023/03/03 01:22:13;;;;;;;;;;;;;;;0.36;89.4541;102753.3;;;;-72
2023/03/03 01:27:13;;;;;;;;;;;;;;;0.31;89.45313;102749.6;;;;-71
2023/03/03 01:31:52;;;;;;;3.8;1.9;;;;;;;;;;;;;-71
2023/03/03 01:32:13;;;;;;;;;;;;;;;0.27;89.52148;102754.5;;;;-72
2023/03/03 01:37:14;;;;;;;;;;;;;;;0.22;89.44727;102746;;;;-72
2023/03/03 01:42:14;;;;;;;;;;;;;;;0.19;89.40918;102746.2;;;;-72
2023/03/03 01:47:14;;;;;;;;;;;;;;;0.16;89.32813;102748.3;;;;-71
2023/03/03 01:52:23;;;;;;;;;;;;;;;0.12;89.36133;102743.7;;;;-72
2023/03/03 01:57:16;;;;;;;;;;;;;;;0.1;89.1084;102748;;;;-71
2023/03/03 02:01:52;;;;;;;4.4;1.9;;;;;;;;;;;;;-70
2023/03/03 02:02:13;;;;;;;;;;;;;;;0.04;89.53809;102748.1;;;;-71
2023/03/03 02:07:13;;;;;;;;;;;;;;;0.01;89.42285;102744.4;;;;-71
2023/03/03 02:12:15;;;;;;;;;;;;;;;-0.06;89.45313;102741.6;;;;-71
2023/03/03 02:17:13;;;;;;;;;;;;;;;-0.08;89.25488;102734.7;;;;-71
2023/03/03 02:22:14;;;;;;;;;;;;;;;-0.12;89.09473;102728.7;;;;-72
2023/03/03 02:27:13;;;;;;;;;;;;;;;-0.18;89.22363;102730.7;;;;-71
2023/03/03 02:31:55;;;;;;;4.4;1.7;;;;;;;;;;;;;-71
2023/03/03 02:32:13;;;;;;;;;;;;;;;-0.22;89.16211;102732.8;;;;-71
2023/03/03 02:37:13;;;;;;;;;;;;;;;-0.27;89.09668;102729.9;;;;-71
2023/03/03 02:42:18;;;;;;;;;;;;;;;-0.32;89.2793;102726.5;;;;-72
2023/03/03 02:47:13;;;;;;;;;;;;;;;-0.34;89.09277;102728.9;;;;-71
2023/03/03 02:52:16;;;;;;;;;;;;;;;-0.37;89.2373;102729.2;;;;-70
2023/03/03 02:57:15;;;;;;;;;;;;;;;-0.42;89.08789;102728.6;;;;-71
2023/03/03 03:01:54;;;;;;;3.5;1.5;;;;;;;;;;;;;-71
2023/03/03 03:02:13;;;;;;;;;;;;;;;-0.46;88.86523;102732.6;;;;-71
2023/03/03 03:07:16;;;;;;;;;;;;;;;-0.52;88.93848;102742.7;;;;-70
2023/03/03 03:12:14;;;;;;;;;;;;;;;-0.61;89.02637;102739.1;;;;-71
2023/03/03 03:17:14;;;;;;;;;;;;;;;-0.6;89.03906;102741;;;;-71
2023/03/03 03:22:13;;;;;;;;;;;;;;;-0.58;88.95703;102736.3;;;;-70
2023/03/03 03:27:13;;;;;;;;;;;;;;;-0.51;88.95117;102735.6;;;;-71
2023/03/03 03:31:51;;;;;;;3.3;1.6;;;;;;;;;;;;;-71
2023/03/03 03:32:13;;;;;;;;;;;;;;;-0.44;89.00684;102737.1;;;;-70
2023/03/03 03:37:13;;;;;;;;;;;;;;;-0.35;88.66016;102738.5;;;;-70
2023/03/03 03:42:13;;;;;;;;;;;;;;;-0.3;88.80078;102739.6;;;;-71
2023/03/03 03:47:13;;;;;;;;;;;;;;;-0.25;88.83008;102747.7;;;;-71
2023/03/03 03:52:13;;;;;;;;;;;;;;;-0.21;88.75488;102744.3;;;;-70
2023/03/03 03:57:13;;;;;;;;;;;;;;;-0.15;88.59277;102740.4;;;;-71
2023/03/03 04:01:53;;;;;;;3.7;1.6;;;;;;;;;;;;;-70
2023/03/03 04:02:13;;;;;;;;;;;;;;;-0.13;88.90137;102743.7;;;;-69
2023/03/03 04:07:13;;;;;;;;;;;;;;;-0.11;88.7334;102741.5;;;;-71
2023/03/03 04:12:13;;;;;;;;;;;;;;;-0.06;88.62402;102750.5;;;;-70
2023/03/03 04:17:18;;;;;;;;;;;;;;;-0.05;88.91797;102750.1;;;;-71
2023/03/03 04:22:14;;;;;;;;;;;;;;;-0.04;88.86621;102753;;;;-71
2023/03/03 04:27:14;;;;;;;;;;;;;;;0;88.93652;102757.2;;;;-70
2023/03/03 04:31:49;;;;;;;3.2;1.3;;;;;;;;;;;;;-70
2023/03/03 04:32:13;;;;;;;;;;;;;;;0.04;88.89258;102759.8;;;;-70
2023/03/03 04:37:13;;;;;;;;;;;;;;;0.06;88.60742;102758.1;;;;-71
2023/03/03 04:42:13;;;;;;;;;;;;;;;0.1;88.73145;102757;;;;-71
2023/03/03 04:47:13;;;;;;;;;;;;;;;0.11;88.6709;102757.8;;;;-71
2023/03/03 04:52:13;;;;;;;;;;;;;;;0.16;88.61719;102761.8;;;;-72
2023/03/03 04:57:15;;;;;;;;;;;;;;;0.19;88.70898;102762.5;;;;-71
2023/03/03 05:01:52;;;;;;;3;1.4;;;;;;;;;;;;;-71
2023/03/03 05:02:13;;;;;;;;;;;;;;;0.19;88.81641;102762.3;;;;-71
2023/03/03 05:07:13;;;;;;;;;;;;;;;0.23;88.8457;102759.9;;;;-70
2023/03/03 05:12:13;;;;;;;;;;;;;;;0.25;88.6123;102754.5;;;;-71
2023/03/03 05:17:13;;;;;;;;;;;;;;;0.22;88.79883;102758;;;;-70
2023/03/03 05:22:13;;;;;;;;;;;;;;;0.21;88.60547;102754.3;;;;-70
2023/03/03 05:27:13;;;;;;;;;;;;;;;0.17;88.63867;102757.7;;;;-71
2023/03/03 05:31:48;;;;;;;3.3;1.7;;;;;;;;;;;;;-70
2023/03/03 05:32:13;;;;;;;;;;;;;;;0.15;88.81641;102754.9;;;;-72
2023/03/03 05:37:14;;;;;;;;;;;;;;;0.11;88.91797;102759.3;;;;-71
2023/03/03 05:42:14;;;;;;;;;;;;;;;0.1;88.75293;102758.1;;;;-72
2023/03/03 05:47:13;;;;;;;;;;;;;;;0.05;88.71973;102760.5;;;;-70
2023/03/03 05:52:13;;;;;;;;;;;;;;;0.02;88.67285;102766.6;;;;-71
2023/03/03 05:57:13;;;;;;;;;;;;;;;0;88.86328;102772.1;;;;-71
2023/03/03 06:01:48;;;;;;;3.1;1.5;;;;;;;;;;;;;-71
2023/03/03 06:02:13;;;;;;;;;;;;;;;-0.07;88.91309;102772.4;;;;-71
2023/03/03 06:07:14;;;;;;;;;;;;;;;-0.14;88.77051;102766.6;;;;-71
2023/03/03 06:12:13;;;;;;;;;;;;;;;-0.18;88.77148;102771.2;;;;-71
2023/03/03 06:17:13;;;;;;;;;;;;;;;-0.19;88.80176;102772.3;;;;-71
2023/03/03 06:22:13;;;;;;;;;;;;;;;-0.21;88.96875;102776.4;;;;-71
2023/03/03 06:27:13;;;;;;;;;;;;;;;-0.24;89.08301;102771.8;;;;-71
2023/03/03 06:31:48;;;;;;;3.4;1.6;;;;;;;;;;;;;-71
2023/03/03 06:32:13;;;;;;;;;;;;;;;-0.3;88.86523;102776.3;;;;-71
2023/03/03 06:37:13;;;;;;;;;;;;;;;-0.34;88.76953;102779.6;;;;-72
2023/03/03 06:42:13;;;;;;;;;;;;;;;-0.37;88.8291;102784.6;;;;-70
2023/03/03 06:47:13;;;;;;;;;;;;;;;-0.41;89.14355;102785.6;;;;-70
2023/03/03 06:52:17;;;;;;;;;;;;;;;-0.43;88.95508;102790.3;;;;-71
2023/03/03 06:57:18;;;;;;;;;;;;;;;-0.44;88.94238;102794.7;;;;-70
2023/03/03 07:01:48;;;;;;;3.4;1.7;;;;;;;;;;;;;-70
2023/03/03 07:02:16;;;;;;;;;;;;;;;-0.47;88.92578;102786.1;;;;-70
2023/03/03 07:07:19;;;;;;;;;;;;;;;-0.42;88.82813;102796.7;;;;-71
2023/03/03 07:12:15;;;;;;;;;;;;;;;-0.42;88.98047;102801.5;;;;-72
2023/03/03 07:17:18;;;;;;;;;;;;;;;-0.42;89.04297;102806.8;;;;-71
2023/03/03 07:22:17;;;;;;;;;;;;;;;-0.36;89.09961;102810.1;;;;-71
2023/03/03 07:27:14;;;;;;;;;;;;;;;-0.29;89.40723;102811.6;;;;-70
2023/03/03 07:31:48;;;;;;;2.9;1.5;;;;;;;;;;;;;-71
2023/03/03 07:32:22;;;;;;;;;;;;;;;-0.16;89.58203;102818.8;;;;-70
2023/03/03 07:37:20;;;;;;;;;;;;;;;0.02;88.75879;102823.3;;;;-71
2023/03/03 07:42:26;;;;;;;;;;;;;;;0.17;88.4668;102830.7;;;;-70
2023/03/03 07:47:22;;;;;;;;;;;;;;;0.33;88.72852;102836.4;;;;-71
2023/03/03 07:52:26;;;;;;;;;;;;;;;0.49;89.31055;102838.6;;;;-71
2023/03/03 07:57:23;;;;;;;;;;;;;;;0.69;89.35059;102844.8;;;;-71
2023/03/03 08:01:48;;;;;;;3.4;1.8;;;;;;;;;;;;;-71
2023/03/03 08:02:23;;;;;;;;;;;;;;;0.85;88.00391;102845.1;;;;-72
2023/03/03 08:07:17;;;;;;;;;;;;;;;1.06;88.03711;102845.8;;;;-71
2023/03/03 08:12:24;;;;;;;;;;;;;;;1.31;87.4502;102852.8;;;;-71
2023/03/03 08:17:17;;;;;;;;;;;;;;;1.61;87.81445;102855.4;;;;-70
2023/03/03 08:22:18;;;;;;;;;;;;;;;1.93;88.07422;102855.1;;;;-71
2023/03/03 08:27:13;;;;;;;;;;;;;;;2.38;87.55957;102854.5;;;;-70
2023/03/03 08:31:47;;;;;;;3.6;1.9;;;;;;;;;;;;;-70
2023/03/03 08:32:13;;;;;;;;;;;;;;;2.78;87.67383;102857.9;;;;-71
2023/03/03 08:37:13;;;;;;;;;;;;;;;3.34;88.15625;102857.8;;;;-71
2023/03/03 08:42:13;;;;;;;;;;;;;;;3.83;87.93066;102857.4;;;;-71
2023/03/03 08:47:13;;;;;;;;;;;;;;;4.37;87.76953;102854.9;;;;-72
2023/03/03 08:52:13;;;;;;;;;;;;;;;4.86;86.71289;102853.5;;;;-72
2023/03/03 08:57:13;;;;;;;;;;;;;;;5.41;85.63672;102851.6;;;;-71
2023/03/03 09:01:46;;;;;;;4;2;;;;;;;;;;;;;-71
2023/03/03 09:02:13;;;;;;;;;;;;;;;5.9;84.20215;102853.6;;;;-71
2023/03/03 09:07:17;;;;;;;;;;;;;;;6.42;83.51465;102851.3;;;;-71
2023/03/03 09:12:18;;;;;;;;;;;;;;;6.91;83.5;102852.2;;;;-71
2023/03/03 09:17:17;;;;;;;;;;;;;;;7.44;81.93262;102850.2;;;;-71
2023/03/03 09:22:21;;;;;;;;;;;;;;;7.88;80.4873;102847.1;;;;-70
2023/03/03 09:27:18;;;;;;;;;;;;;;;8.33;78.86523;102852.4;;;;-71
2023/03/03 09:31:47;;;;;;;3.5;1.6;;;;;;;;;;;;;-71
2023/03/03 09:32:24;;;;;;;;;;;;;;;8.55;77.91309;102850.1;;;;-71
2023/03/03 09:37:21;;;;;;;;;;;;;;;8.82;76.37207;102849.5;;;;-71
2023/03/03 09:42:26;;;;;;;;;;;;;;;9.13;74.92578;102847;;;;-71
2023/03/03 09:47:21;;;;;;;;;;;;;;;9.44;72.99805;102851.1;;;;-72
2023/03/03 09:52:21;;;;;;;;;;;;;;;9.65;72.80078;102849.2;;;;-72
2023/03/03 09:57:17;;;;;;;;;;;;;;;9.91;72.30176;102841.3;;;;-71
2023/03/03 10:01:59;;;;;;;3.2;1.6;;;;;;;;;;;;;-70
2023/03/03 10:02:34;;;;;;;;;;;;;;;10.19;70.46484;102846.5;;;;-70
2023/03/03 10:07:24;;;;;;;;;;;;;;;9.96;68.99805;102837.7;;;;-70
2023/03/03 10:12:17;;;;;;;;;;;;;;;10.05;69.44434;102847.6;;;;-70
2023/03/03 10:17:20;;;;;;;;;;;;;;;9.81;67.83203;102848.2;;;;-70
2023/03/03 10:22:22;;;;;;;;;;;;;;;9.37;67.91895;102848;;;;-70
2023/03/03 10:27:22;;;;;;;;;;;;;;;9;68.82324;102852.9;;;;-70
2023/03/03 10:31:54;;;;;;;2.7;1;;;;;;;;;;;;;-70
2023/03/03 10:32:24;;;;;;;;;;;;;;;8.71;69.41992;102852.1;;;;-71
2023/03/03 10:37:16;;;;;;;;;;;;;;;8.51;71.17676;102861.8;;;;-70
2023/03/03 10:42:29;;;;;;;;;;;;;;;8.38;72.43555;102862.9;;;;-69
2023/03/03 10:47:34;;;;;;;;;;;;;;;8.41;72.48535;102860.2;;;;-72
2023/03/03 10:52:33;;;;;;;;;;;;;;;8.47;72.96875;102855.4;;;;-73
2023/03/03 10:57:18;;;;;;;;;;;;;;;8.4;73.83887;102854.1;;;;-69
2023/03/03 11:01:56;;;;;;;6.1;1.1;;;;;;;;;;;;;-68
2023/03/03 11:02:21;;;;;;;;;;;;;;;8.27;73.35449;102851.8;;;;-69
2023/03/03 11:07:17;;;;;;;;;;;;;;;8.16;73.5459;102846.2;;;;-70
2023/03/03 11:12:15;;;;;;;;;;;;;;;8.44;75.88672;102851;;;;-71
2023/03/03 11:17:17;;;;;;;;;;;;;;;8.85;75.99121;102848.8;;;;-70
2023/03/03 11:22:17;;;;;;;;;;;;;;;9.24;75.71777;102847.5;;;;-70
2023/03/03 11:27:24;;;;;;;;;;;;;;;9.25;74.48145;102846.5;;;;-70
2023/03/03 11:31:51;;;;;;;3;0.8;;;;;;;;;;;;;-70
2023/03/03 11:32:21;;;;;;;;;;;;;;;9.15;75.10547;102849;;;;-69
2023/03/03 11:37:16;;;;;;;;;;;;;;;9.06;75.00098;102852.3;;;;-71
2023/03/03 11:42:17;;;;;;;;;;;;;;;8.96;75.8457;102853.9;;;;-71
2023/03/03 11:47:21;;;;;;;;;;;;;;;8.9;75.58008;102852.2;;;;-73
2023/03/03 11:52:22;;;;;;;;;;;;;;;8.83;75.71094;102849;;;;-71
2023/03/03 11:57:20;;;;;;;;;;;;;;;8.8;75.86133;102846.3;;;;-73
2023/03/03 12:01:56;;;;;;;1.7;0.8;;;;;;;;;;;;;-72
2023/03/03 12:02:22;;;;;;;;;;;;;;;8.8;76.10352;102843;;;;-72
2023/03/03 12:07:21;;;;;;;;;;;;;;;8.81;76.38281;102843;;;;-71
2023/03/03 12:12:17;;;;;;;;;;;;;;;8.87;76.88867;102844.5;;;;-70
2023/03/03 12:17:18;;;;;;;;;;;;;;;8.89;76.56055;102840.8;;;;-71
2023/03/03 12:22:18;;;;;;;;;;;;;;;8.89;76.33984;102836.5;;;;-70
2023/03/03 12:27:17;;;;;;;;;;;;;;;8.92;76.6543;102833.1;;;;-71
2023/03/03 12:31:58;;;;;;;1.1;0.7;;;;;;;;;;;;;-71
2023/03/03 12:32:21;;;;;;;;;;;;;;;8.9;76.31934;102837.3;;;;-71
2023/03/03 12:37:26;;;;;;;;;;;;;;;8.87;76.66797;102833.3;;;;-72
2023/03/03 12:42:20;;;;;;;;;;;;;;;8.87;75.68555;102833.7;;;;-71
2023/03/03 12:47:19;;;;;;;;;;;;;;;8.87;76.51367;102828.2;;;;-72
2023/03/03 12:52:24;;;;;;;;;;;;;;;8.96;76.44141;102828;;;;-71
2023/03/03 12:57:18;;;;;;;;;;;;;;;9.01;76.48438;102823.3;;;;-71
2023/03/03 13:02:10;;;;;;;1.8;0.8;;;;;;;;;;;;;-72
2023/03/03 13:02:33;;;;;;;;;;;;;;;9.04;77.18262;102821.9;;;;-71
2023/03/03 13:07:18;;;;;;;;;;;;;;;9.12;76.5459;102822.6;;;;-72
2023/03/03 13:12:27;;;;;;;;;;;;;;;9.18;76.28125;102825.4;;;;-71
2023/03/03 13:17:20;;;;;;;;;;;;;;;9.28;76.08887;102818.7;;;;-72
2023/03/03 13:22:16;;;;;;;;;;;;;;;9.48;76.05859;102818.8;;;;-72
2023/03/03 13:27:15;;;;;;;;;;;;;;;9.57;75.20117;102817;;;;-71
2023/03/03 13:31:57;;;;;;;1.8;0.7;;;;;;;;;;;;;-72
2023/03/03 13:32:18;;;;;;;;;;;;;;;9.59;74.92773;102817.6;;;;-71
2023/03/03 13:37:18;;;;;;;;;;;;;;;9.63;74.81055;102816.3;;;;-72
2023/03/03 13:42:18;;;;;;;;;;;;;;;9.63;75.03418;102814.5;;;;-71
2023/03/03 13:47:18;;;;;;;;;;;;;;;9.64;74.98047;102812.4;;;;-71
2023/03/03 13:52:14;;;;;;;;;;;;;;;9.71;74.84668;102805.1;;;;-72
2023/03/03 13:57:21;;;;;;;;;;;;;;;9.68;74.47852;102801.2;;;;-71
2023/03/03 14:02:05;;;;;;;1.9;0.7;;;;;;;;;;;;;-72
2023/03/03 14:02:24;;;;;;;;;;;;;;;9.64;74.51367;102797.9;;;;-71
2023/03/03 14:07:16;;;;;;;;;;;;;;;9.67;75.34961;102796.4;;;;-71
2023/03/03 14:12:21;;;;;;;;;;;;;;;9.65;74.82715;102796;;;;-72
2023/03/03 14:17:18;;;;;;;;;;;;;;;9.66;74.90625;102790.8;;;;-72
2023/03/03 14:22:22;;;;;;;;;;;;;;;9.64;75.06836;102790.8;;;;-71
2023/03/03 14:27:23;;;;;;;;;;;;;;;9.61;75.07324;102788.5;;;;-72
2023/03/03 14:32:00;;;;;;;3.1;0.7;;;;;;;;;;;;;-72
2023/03/03 14:32:26;;;;;;;;;;;;;;;9.58;75.07031;102786.5;;;;-71
2023/03/03 14:37:28;;;;;;;;;;;;;;;9.56;75.10938;102784.9;;;;-71
2023/03/03 14:42:15;;;;;;;;;;;;;;;9.51;74.89063;102779.9;;;;-71
2023/03/03 14:47:25;;;;;;;;;;;;;;;9.45;75.15723;102772.3;;;;-71
2023/03/03 14:52:22;;;;;;;;;;;;;;;9.41;75.34863;102767.7;;;;-71
2023/03/03 14:57:15;;;;;;;;;;;;;;;9.37;76.91113;102768.9;;;;-72
2023/03/03 15:02:06;;;;;;;2.2;0.8;;;;;;;;;;;;;-71
2023/03/03 15:02:26;;;;;;;;;;;;;;;9.26;75.6875;102760;;;;-72
2023/03/03 15:07:24;;;;;;;;;;;;;;;9.23;75.82617;102764.4;;;;-71
2023/03/03 15:12:24;;;;;;;;;;;;;;;9.16;76.22266;102761.3;;;;-71
2023/03/03 15:17:22;;;;;;;;;;;;;;;9.08;77.61133;102753.9;;;;-72
2023/03/03 15:22:17;;;;;;;;;;;;;;;9.02;77.13672;102749.7;;;;-72
2023/03/03 15:27:16;;;;;;;;;;;;;;;8.94;78.43457;102741.5;;;;-71
2023/03/03 15:32:04;;;;;;;2.2;0.8;;;;;;;;;;;;;-71
2023/03/03 15:32:20;;;;;;;;;;;;;;;8.84;79.21094;102733.1;;;;-70
2023/03/03 15:37:24;;;;;;;;;;;;;;;8.78;79.34277;102735.8;;;;-72
2023/03/03 15:42:16;;;;;;;;;;;;;;;8.72;79.45215;102734.7;;;;-72
2023/03/03 15:47:23;;;;;;;;;;;;;;;8.66;80.0918;102734.4;;;;-70
2023/03/03 15:52:21;;;;;;;;;;;;;;;8.6;80.36816;102743.5;;;;-71
2023/03/03 15:57:24;;;;;;;;;;;;;;;8.53;80.33105;102742.2;;;;-71
2023/03/03 16:02:08;;;;;;;6.5;1;;;;;;;;;;;;;-71
2023/03/03 16:02:20;;;;;;;;;;;;;;;8.43;81.27246;102743.4;;;;-71
2023/03/03 16:07:16;;;;;;;;;;;;;;;8.35;81.8291;102742.6;;;;-71
2023/03/03 16:12:19;;;;;;;;;;;;;;;8.28;81.74902;102743.6;;;;-71
2023/03/03 16:17:17;;;;;;;;;;;;;;;8.19;82.11719;102741.7;;;;-72
2023/03/03 16:22:25;;;;;;;;;;;;;;;8.1;82.07813;102745.4;;;;-71
2023/03/03 16:27:17;;;;;;;;;;;;;;;8;81.98438;102740.7;;;;-71
2023/03/03 16:32:05;;;;;;;6.5;1.3;;;;;;;;;;;;;-71
2023/03/03 16:32:18;;;;;;;;;;;;;;;7.84;81.51367;102734.3;;;;-71
2023/03/03 16:37:24;;;;;;;;;;;;;;;7.8;81.57227;102747.1;;;;-70
2023/03/03 16:42:21;;;;;;;;;;;;;;;7.72;81.95117;102750.4;;;;-70
2023/03/03 16:47:31;;;;;;;;;;;;;;;7.64;82.27832;102756;;;;-72
2023/03/03 16:52:15;;;;;;;;;;;;;;;7.57;82.58301;102752.7;;;;-71
2023/03/03 16:57:21;;;;;;;;;;;;;;;7.48;82.64355;102752;;;;-71
2023/03/03 17:02:10;;;;;;;7.1;1.5;;;;;;;;;;;;;-71
2023/03/03 17:02:34;;;;;;;;;;;;;;;7.38;82.97559;102749.6;;;;-73
2023/03/03 17:07:18;;;;;;;;;;;;;;;7.33;83.25098;102760.4;;;;-72
2023/03/03 17:12:21;;;;;;;;;;;;;;;7.26;83.37988;102762.8;;;;-71
2023/03/03 17:17:19;;;;;;;;;;;;;;;7.17;83.49316;102757;;;;-72
2023/03/03 17:22:23;;;;;;;;;;;;;;;7.1;84.03906;102759.2;;;;-71
2023/03/03 17:27:17;;;;;;;;;;;;;;;7.03;83.78516;102769.5;;;;-71
2023/03/03 17:32:11;;;;;;;6.8;1.4;;;;;;;;;;;;;-72
2023/03/03 17:32:28;;;;;;;;;;;;;;;6.94;84.29395;102766.4;;;;-70
2023/03/03 17:37:18;;;;;;;;;;;;;;;6.86;84.47656;102770.6;;;;-72
2023/03/03 17:42:18;;;;;;;;;;;;;;;6.8;84.38574;102773.9;;;;-71
2023/03/03 17:47:19;;;;;;;;;;;;;;;6.73;84.79883;102779.4;;;;-72
2023/03/03 17:52:21;;;;;;;;;;;;;;;6.66;85.03809;102780.8;;;;-72
2023/03/03 17:57:23;;;;;;;;;;;;;;;6.57;84.77051;102785.1;;;;-71
2023/03/03 18:02:20;;;;;;;6;1.2;;;;;;;;;;;;;-71
2023/03/03 18:02:47;;;;;;;;;;;;;;;6.5;84.70117;102785.9;;;;-70
2023/03/03 18:07:24;;;;;;;;;;;;;;;6.45;85.21582;102790.6;;;;-71
2023/03/03 18:12:21;;;;;;;;;;;;;;;6.39;85.50098;102792.8;;;;-72
2023/03/03 18:17:24;;;;;;;;;;;;;;;6.34;85.60156;102793.6;;;;-72
2023/03/03 18:22:15;;;;;;;;;;;;;;;6.28;85.64355;102801.6;;;;-71
2023/03/03 18:27:24;;;;;;;;;;;;;;;6.23;85.92773;102802.3;;;;-72
2023/03/03 18:32:18;;;;;;;5.7;1.1;;;;;;;;;;;;;-70
2023/03/03 18:32:38;;;;;;;;;;;;;;;6.16;86.01367;102798.7;;;;-72
2023/03/03 18:37:26;;;;;;;;;;;;;;;6.13;85.63281;102804.1;;;;-70
2023/03/03 18:42:29;;;;;;;;;;;;;;;6.09;86.13965;102804.6;;;;-72
2023/03/03 18:47:16;;;;;;;;;;;;;;;6.04;86.17578;102800.6;;;;-71
2023/03/03 18:52:23;;;;;;;;;;;;;;;5.99;85.97754;102795.7;;;;-72
2023/03/03 18:57:20;;;;;;;;;;;;;;;5.96;86.22363;102796.7;;;;-72
2023/03/03 19:02:20;;;;;;;6.8;1;;;;;;;;;;;;;-72
2023/03/03 19:02:45;;;;;;;;;;;;;;;5.89;86.40723;102792.7;;;;-71
2023/03/03 19:07:25;;;;;;;;;;;;;;;5.87;86.60059;102800.3;;;;-72
2023/03/03 19:12:15;;;;;;;;;;;;;;;5.82;86.33789;102799.6;;;;-72
2023/03/03 19:17:32;;;;;;;;;;;;;;;5.79;86.45313;102803;;;;-72
2023/03/03 19:22:29;;;;;;;;;;;;;;;5.75;86.33691;102803.5;;;;-71
2023/03/03 19:27:27;;;;;;;;;;;;;;;5.72;86.29688;102813;;;;-71
2023/03/03 19:32:16;;;;;;;6;1.3;;;;;;;;;;;;;-71
2023/03/03 19:32:31;;;;;;;;;;;;;;;5.68;86.39648;102815.2;;;;-71
2023/03/03 19:37:22;;;;;;;;;;;;;;;5.66;86.60254;102819.5;;;;-70
2023/03/03 19:42:18;;;;;;;;;;;;;;;5.63;86.48633;102824.5;;;;-72
2023/03/03 19:47:14;;;;;;;;;;;;;;;5.6;86.29492;102824.2;;;;-72
2023/03/03 19:52:20;;;;;;;;;;;;;;;5.57;86.37695;102829.9;;;;-71
2023/03/03 19:57:18;;;;;;;;;;;;;;;5.54;86.29297;102832;;;;-71
2023/03/03 20:02:26;;;;;;;5.8;1.1;;;;;;;;;;;;;-71
2023/03/03 20:02:44;;;;;;;;;;;;;;;5.5;86.1543;102832;;;;-72
2023/03/03 20:07:21;;;;;;;;;;;;;;;5.5;86.51465;102833;;;;-72
2023/03/03 20:12:25;;;;;;;;;;;;;;;5.49;86.0752;102836.1;;;;-71
2023/03/03 20:17:25;;;;;;;;;;;;;;;5.46;86.57324;102836.8;;;;-71
2023/03/03 20:22:15;;;;;;;;;;;;;;;5.44;86.74414;102839.2;;;;-71
2023/03/03 20:27:17;;;;;;;;;;;;;;;5.42;85.80176;102838;;;;-72
2023/03/03 20:32:12;;;;;;;8.6;1.3;;;;;;;;;;;;;-71
2023/03/03 20:32:26;;;;;;;;;;;;;;;5.41;86.2334;102835;;;;-71
2023/03/03 20:37:16;;;;;;;;;;;;;;;5.4;85.34863;102842.4;;;;-71
2023/03/03 20:42:20;;;;;;;;;;;;;;;5.39;86.26172;102845;;;;-71
2023/03/03 20:47:19;;;;;;;;;;;;;;;5.36;85.66895;102852.7;;;;-69
2023/03/03 20:52:17;;;;;;;;;;;;;;;5.35;86.12402;102855;;;;-70
2023/03/03 20:57:18;;;;;;;;;;;;;;;5.33;85.66211;102857.8;;;;-69
2023/03/03 21:02:14;;;;;;;9;1.4;;;;;;;;;;;;;-69
2023/03/03 21:02:28;;;;;;;;;;;;;;;5.29;85.92773;102855.5;;;;-70
2023/03/03 21:07:23;;;;;;;;;;;;;;;5.28;85.95898;102860.2;;;;-72
2023/03/03 21:12:26;;;;;;;;;;;;;;;5.28;85.41113;102862.9;;;;-72
2023/03/03 21:17:27;;;;;;;;;;;;;;;5.27;85.47656;102860.8;;;;-71
2023/03/03 21:22:13;;;;;;;;;;;;;;;5.24;85.35156;102862.2;;;;-71
2023/03/03 21:27:23;;;;;;;;;;;;;;;5.23;85.20605;102860.7;;;;-72
2023/03/03 21:32:11;;;;;;;7;1.5;;;;;;;;;;;;;-72
2023/03/03 21:32:30;;;;;;;;;;;;;;;5.18;85.64453;102850.6;;;;-71
2023/03/03 21:37:14;;;;;;;;;;;;;;;5.19;85.29688;102853.9;;;;-71
2023/03/03 21:42:14;;;;;;;;;;;;;;;5.18;85.19727;102855.1;;;;-71
2023/03/03 21:47:14;;;;;;;;;;;;;;;5.17;85.19531;102856.8;;;;-71
2023/03/03 21:52:15;;;;;;;;;;;;;;;5.16;85.5293;102854.5;;;;-71
2023/03/03 21:57:13;;;;;;;;;;;;;;;5.15;85.26758;102859.6;;;;-71
2023/03/03 22:02:10;;;;;;;6.5;1.3;;;;;;;;;;;;;-71
2023/03/03 22:02:21;;;;;;;;;;;;;;;5.12;85.10938;102858.3;;;;-71
2023/03/03 22:07:15;;;;;;;;;;;;;;;5.14;85.25391;102857.5;;;;-71
2023/03/03 22:12:13;;;;;;;;;;;;;;;5.12;85.67676;102857.5;;;;-71
2023/03/03 22:17:13;;;;;;;;;;;;;;;5.1;85.71484;102855.5;;;;-73
2023/03/03 22:22:13;;;;;;;;;;;;;;;5.1;85.00586;102861.1;;;;-71
2023/03/03 22:27:13;;;;;;;;;;;;;;;5.08;84.99219;102855.2;;;;-71
2023/03/03 22:32:11;;;;;;;5;0.9;;;;;;;;;;;;;-72
2023/03/03 22:32:20;;;;;;;;;;;;;;;5.05;85.25684;102855.3;;;;-72
2023/03/03 22:37:13;;;;;;;;;;;;;;;5.06;85.32617;102856.6;;;;-71
2023/03/03 22:42:13;;;;;;;;;;;;;;;5.06;85.43359;102856.2;;;;-71
2023/03/03 22:47:13;;;;;;;;;;;;;;;5.04;85.26855;102850.5;;;;-70
2023/03/03 22:52:15;;;;;;;;;;;;;;;5.04;85.14648;102846.7;;;;-72
2023/03/03 22:57:13;;;;;;;;;;;;;;;5.04;85.28809;102852.3;;;;-71
2023/03/03 23:02:11;;;;;;;8.6;1.3;;;;;;;;;;;;;-70
2023/03/03 23:02:23;;;;;;;;;;;;;;;5.01;85.25;102845.8;;;;-71
2023/03/03 23:07:13;;;;;;;;;;;;;;;5.02;85.33887;102850.6;;;;-71
2023/03/03 23:12:13;;;;;;;;;;;;;;;5;85.45508;102850.8;;;;-71
2023/03/03 23:17:13;;;;;;;;;;;;;;;5;85.31348;102848.7;;;;-71
2023/03/03 23:22:13;;;;;;;;;;;;;;;4.99;85.86816;102849.2;;;;-71
2023/03/03 23:27:14;;;;;;;;;;;;;;;4.98;85.27734;102847;;;;-71
2023/03/03 23:32:12;;;;;;;6.2;1.2;;;;;;;;;;;;;-70
2023/03/03 23:32:23;;;;;;;;;;;;;;;4.98;85.75586;102845.9;;;;-70
2023/03/03 23:37:13;;;;;;;;;;;;;;;4.96;85.21973;102841.1;;;;-72
2023/03/03 23:42:13;;;;;;;;;;;;;;;4.96;85.31543;102843;;;;-71
2023/03/03 23:47:13;;;;;;;;;;;;;;;4.95;85.25;102845.6;;;;-70
2023/03/03 23:52:17;;;;;;;;;;;;;;;4.95;85.22852;102843.7;;;;-71
2023/03/03 23:57:13;;;;;;;;;;;;;;;4.94;85.58496;102837.5;;;;-71
